Time;durP1;ratioP1;P1;durP2;ratioP2;P2;SDS_P1;SDS_P2;PMS_P1;PMS_P2;Temp;Humidity;BMP_temperature;BMP_pressure;BME280_temperature;BME280_humidity;BME280_pressure;Samples;Min_cycle;Max_cycle;Signal;HPM_P1;HPM_P2
2024/04/12 00:00:58;;;;;;;;;;;;;;;26.43;25.44;99663.97;5505187;26;20333;-81
2024/04/12 00:03:24;;;;;;;;;;;;;;;26.54;24.82;99659.88;5515587;26;19931;-81
2024/04/12 00:05:50;;;;;;;;;;;;;;;26.73;24.53;99652.88;5508465;26;19927;-82
2024/04/12 00:08:18;;;;;;;;;;;;;;;26.86;24.27;99651.22;5526319;26;19927;-82
2024/04/12 00:10:44;;;;;;;;;;;;;;;26.94;24.42;99651.94;5502157;26;19928;-82
2024/04/12 00:13:11;;;;;;;;;;;;;;;26.71;24.92;99647.66;5512135;25;19928;-81
2024/04/12 00:15:38;;;;;;;;;;;;;;;26.83;24.36;99648.41;5510991;26;19956;-81
2024/04/12 00:18:05;;;;;;;;;;;;;;;26.84;24.22;99653.63;5540754;25;19995;-81
2024/04/12 00:20:32;;;;;;;;;;;;;;;26.92;24.32;99643.91;5516305;25;19932;-82
2024/04/12 00:22:58;;;;;;;;;;;;;;;27.02;23.89;99642.22;5501702;26;19931;-82
2024/04/12 00:25:24;;;;;;;;;;;;;;;27.04;23.88;99634.13;5486027;26;19943;-82
2024/04/12 00:27:50;;;;;;;;;;;;;;;27.08;23.93;99632.88;5476981;25;20360;-82
2024/04/12 00:30:37;;;;;;;;;;;;;;;27.06;23.47;99632.50;5483882;25;19927;-81
2024/04/12 00:33:09;;;;;;;;;;;;;;;26.98;24.07;99627.34;5545757;25;19927;-81
2024/04/12 00:35:36;;;;;;;;;;;;;;;27.01;23.78;99626.50;5511482;25;19932;-82
2024/04/12 00:38:09;;;;;;;;;;;;;;;26.71;24.28;99627.94;5528237;25;19948;-82
2024/04/12 00:40:36;;;;;;;;;;;;;;;26.45;24.48;99622.09;5515950;25;20367;-82
2024/04/12 00:43:11;;;;;;;;;;;;;;;26.56;24.24;99617.19;5525010;25;20263;-82
2024/04/12 00:45:45;;;;;;;;;;;;;;;26.56;24.22;99615.16;5520584;26;19934;-82
2024/04/12 00:48:12;;;;;;;;;;;;;;;26.43;24.65;99621.72;5530016;25;19928;-82
2024/04/12 00:50:40;;;;;;;;;;;;;;;26.57;24.23;99611.16;5516812;25;19936;-82
2024/04/12 00:53:09;;;;;;;;;;;;;;;26.77;24.07;99619.09;5525334;25;20399;-82
2024/04/12 00:55:41;;;;;;;;;;;;;;;26.83;24.20;99618.22;5527285;25;19996;-82
2024/04/12 00:58:11;;;;;;;;;;;;;;;27.01;23.64;99621.66;5519043;25;19927;-82
2024/04/12 01:00:40;;;;;;;;;;;;;;;27.02;23.54;99617.63;5522941;25;19927;-81
2024/04/12 01:03:14;;;;;;;;;;;;;;;27.02;23.75;99619.66;5516618;25;19938;-83
2024/04/12 01:05:41;;;;;;;;;;;;;;;27.01;23.39;99607.56;5505956;25;19932;-82
2024/04/12 01:08:07;;;;;;;;;;;;;;;26.94;23.43;99609.66;5531066;25;19936;-82
2024/04/12 01:10:36;;;;;;;;;;;;;;;26.96;23.59;99612.84;5518790;25;19943;-82
2024/04/12 01:13:03;;;;;;;;;;;;;;;26.82;24.00;99621.44;5501431;25;19927;-82
2024/04/12 01:15:36;;;;;;;;;;;;;;;26.80;24.04;99615.41;5530334;25;20000;-82
2024/04/12 01:18:10;;;;;;;;;;;;;;;26.96;24.11;99624.13;5527413;25;19995;-82
2024/04/12 01:20:36;;;;;;;;;;;;;;;27.12;24.03;99619.53;5539473;25;19946;-82
2024/04/12 01:23:04;;;;;;;;;;;;;;;27.25;23.58;99622.63;5529916;25;19928;-82
2024/04/12 01:25:31;;;;;;;;;;;;;;;27.30;22.97;99622.19;5504821;26;20304;-82
2024/04/12 01:27:57;;;;;;;;;;;;;;;27.33;22.63;99621.31;5494672;25;19928;-82
2024/04/12 01:30:30;;;;;;;;;;;;;;;27.34;22.50;99620.13;5508525;25;19935;-83
2024/04/12 01:32:59;;;;;;;;;;;;;;;27.33;22.84;99619.31;5531603;25;19928;-82
2024/04/12 01:35:26;;;;;;;;;;;;;;;27.34;22.81;99620.94;5552205;25;20258;-82
2024/04/12 01:37:52;;;;;;;;;;;;;;;27.29;22.99;99626.22;5517598;25;20360;-82
2024/04/12 01:40:18;;;;;;;;;;;;;;;27.15;23.20;99626.34;5540776;25;19934;-82
2024/04/12 01:42:44;;;;;;;;;;;;;;;27.21;23.07;99627.53;5530361;25;19931;-82
2024/04/12 01:45:13;;;;;;;;;;;;;;;27.22;22.93;99623.47;5529674;25;19933;-82
2024/04/12 01:47:45;;;;;;;;;;;;;;;26.84;23.26;99633.88;5544414;25;19927;-82
2024/04/12 01:50:21;;;;;;;;;;;;;;;26.80;23.19;99638.75;5521541;25;19982;-82
2024/04/12 01:52:53;;;;;;;;;;;;;;;26.91;23.52;99628.19;5531955;25;19942;-82
2024/04/12 01:55:20;;;;;;;;;;;;;;;27.07;23.19;99636.13;5493713;25;20274;-82
2024/04/12 01:57:51;;;;;;;;;;;;;;;27.16;22.74;99637.25;5526603;25;19995;-82
2024/04/12 02:00:20;;;;;;;;;;;;;;;26.94;22.89;99635.81;5523486;25;19996;-82
2024/04/12 02:02:46;;;;;;;;;;;;;;;26.88;23.06;99636.69;5510755;25;19928;-82
2024/04/12 02:05:13;;;;;;;;;;;;;;;26.94;23.05;99638.66;5519697;25;19927;-82
2024/04/12 02:07:44;;;;;;;;;;;;;;;27.05;22.75;99635.75;5510638;25;19931;-82
2024/04/12 02:10:11;;;;;;;;;;;;;;;26.90;23.20;99631.44;5501512;25;19960;-82
2024/04/12 02:12:41;;;;;;;;;;;;;;;26.98;23.00;99630.94;5505244;25;19936;-82
2024/04/12 02:15:25;;;;;;;;;;;;;;;27.00;22.88;99633.38;5523545;25;19927;-82
2024/04/12 02:18:02;;;;;;;;;;;;;;;27.19;22.66;99635.59;5517818;25;19935;-82
2024/04/12 02:20:35;;;;;;;;;;;;;;;27.26;22.84;99635.50;5542492;25;19939;-82
2024/04/12 02:23:07;;;;;;;;;;;;;;;27.26;22.45;99633.50;5519191;25;20392;-82
2024/04/12 02:25:37;;;;;;;;;;;;;;;26.93;23.22;99627.78;5526051;25;19968;-82
2024/04/12 02:28:08;;;;;;;;;;;;;;;26.89;23.11;99638.28;5521161;25;19960;-82
2024/04/12 02:30:44;;;;;;;;;;;;;;;26.99;22.85;99635.38;5512677;25;19947;-82
2024/04/12 02:33:14;;;;;;;;;;;;;;;27.11;22.68;99636.88;5510364;25;19934;-82
2024/04/12 02:35:41;;;;;;;;;;;;;;;27.12;22.66;99632.84;5526784;25;19928;-82
2024/04/12 02:38:10;;;;;;;;;;;;;;;26.93;22.88;99627.78;5513466;25;20351;-82
2024/04/12 02:40:41;;;;;;;;;;;;;;;26.99;22.57;99629.75;5526254;25;19940;-82
2024/04/12 02:43:08;;;;;;;;;;;;;;;27.03;23.30;99630.50;5510833;25;20263;-82
2024/04/12 02:45:35;;;;;;;;;;;;;;;27.08;22.58;99632.88;5518540;26;19934;-82
2024/04/12 02:48:03;;;;;;;;;;;;;;;27.03;22.69;99624.88;5512178;25;19938;-82
2024/04/12 02:50:29;;;;;;;;;;;;;;;27.01;23.23;99629.31;5526456;25;19926;-82
2024/04/12 02:52:56;;;;;;;;;;;;;;;27.11;23.28;99628.41;5521702;25;19955;-82
2024/04/12 02:55:30;;;;;;;;;;;;;;;27.08;22.65;99623.59;5510760;25;19940;-82
2024/04/12 02:57:57;;;;;;;;;;;;;;;27.11;23.13;99626.41;5527974;25;20369;-82
2024/04/12 03:00:23;;;;;;;;;;;;;;;27.04;22.91;99622.84;5524728;25;19959;-82
2024/04/12 03:02:53;;;;;;;;;;;;;;;27.03;22.63;99627.69;5537881;25;19935;-82
2024/04/12 03:05:20;;;;;;;;;;;;;;;26.95;23.14;99633.81;5524049;25;19934;-82
2024/04/12 03:07:46;;;;;;;;;;;;;;;27.00;22.84;99634.16;5525960;25;21191;-82
2024/04/12 03:10:18;;;;;;;;;;;;;;;27.08;22.78;99640.53;5521619;25;19951;-82
2024/04/12 03:12:51;;;;;;;;;;;;;;;27.23;22.78;99637.16;5522036;25;19996;-82
2024/04/12 03:15:19;;;;;;;;;;;;;;;27.22;22.66;99643.22;5525320;25;19934;-82
2024/04/12 03:17:46;;;;;;;;;;;;;;;27.21;22.74;99644.44;5496784;26;20003;-82
2024/04/12 03:20:15;;;;;;;;;;;;;;;27.20;22.96;99634.38;5515305;25;19935;-82
2024/04/12 03:22:44;;;;;;;;;;;;;;;27.24;22.55;99635.94;5516254;26;20466;-82
2024/04/12 03:25:11;;;;;;;;;;;;;;;27.27;22.27;99637.13;5508798;25;19935;-82
2024/04/12 03:27:38;;;;;;;;;;;;;;;26.68;22.55;99630.78;5475605;25;20225;-82
2024/04/12 03:30:13;;;;;;;;;;;;;;;26.56;23.00;99642.53;5509651;25;20339;-82
2024/04/12 03:32:44;;;;;;;;;;;;;;;26.68;23.37;99645.69;5527118;25;19934;-82
2024/04/12 03:35:12;;;;;;;;;;;;;;;26.89;23.17;99636.28;5508203;26;19928;-82
2024/04/12 03:37:39;;;;;;;;;;;;;;;26.93;23.11;99645.50;5487819;26;19940;-82
2024/04/12 03:40:16;;;;;;;;;;;;;;;26.88;23.02;99651.59;5503027;25;19992;-82
2024/04/12 03:42:44;;;;;;;;;;;;;;;26.87;22.96;99647.16;5507692;25;19959;-82
2024/04/12 03:45:15;;;;;;;;;;;;;;;26.90;22.75;99646.34;5522509;25;20787;-82
2024/04/12 03:47:44;;;;;;;;;;;;;;;26.99;23.11;99645.84;5473630;26;20000;-82
2024/04/12 03:50:13;;;;;;;;;;;;;;;27.06;22.50;99648.59;5488101;25;19927;-82
2024/04/12 03:52:48;;;;;;;;;;;;;;;27.11;22.40;99645.34;5515885;25;20025;-82
2024/04/12 03:55:14;;;;;;;;;;;;;;;27.08;22.21;99651.81;5501842;26;20904;-82
2024/04/12 03:57:40;;;;;;;;;;;;;;;27.09;22.35;99651.41;5519231;25;19999;-82
2024/04/12 04:00:10;;;;;;;;;;;;;;;27.15;22.17;99651.75;5499941;25;19928;-82
2024/04/12 04:02:36;;;;;;;;;;;;;;;27.12;22.47;99656.19;5530402;25;19938;-82
2024/04/12 04:05:14;;;;;;;;;;;;;;;26.92;22.31;99645.91;5551100;25;19950;-82
2024/04/12 04:07:46;;;;;;;;;;;;;;;26.93;22.52;99642.69;5513361;25;19999;-82
2024/04/12 04:10:20;;;;;;;;;;;;;;;26.97;22.46;99640.63;5470017;25;20267;-81
2024/04/12 04:12:49;;;;;;;;;;;;;;;27.03;22.61;99649.44;5499390;25;19997;-82
2024/04/12 04:15:15;;;;;;;;;;;;;;;27.08;22.29;99646.16;5511712;25;19934;-82
2024/04/12 04:17:47;;;;;;;;;;;;;;;27.11;22.68;99651.78;5511608;25;20003;-82
2024/04/12 04:20:14;;;;;;;;;;;;;;;27.15;22.87;99657.38;5508877;25;20003;-82
2024/04/12 04:22:40;;;;;;;;;;;;;;;27.19;22.97;99656.13;5510912;25;19995;-82
2024/04/12 04:25:10;;;;;;;;;;;;;;;27.41;22.79;99656.75;5492332;25;20359;-82
2024/04/12 04:27:36;;;;;;;;;;;;;;;27.61;22.87;99652.06;5495920;25;20240;-82
2024/04/12 04:30:03;;;;;;;;;;;;;;;27.74;22.42;99658.78;5537147;25;19958;-82
2024/04/12 04:32:29;;;;;;;;;;;;;;;27.79;22.38;99660.34;5532977;25;19995;-81
2024/04/12 04:35:05;;;;;;;;;;;;;;;27.78;22.03;99668.00;5523904;25;19934;-82
2024/04/12 04:37:34;;;;;;;;;;;;;;;27.80;22.28;99664.75;5519509;25;19976;-82
2024/04/12 04:40:01;;;;;;;;;;;;;;;27.86;21.95;99663.91;5511810;25;19950;-81
2024/04/12 04:42:27;;;;;;;;;;;;;;;27.98;21.88;99666.13;5527862;25;19934;-81
2024/04/12 04:44:53;;;;;;;;;;;;;;;27.89;21.90;99667.91;5511634;25;19935;-81
2024/04/12 04:47:23;;;;;;;;;;;;;;;27.79;22.38;99669.63;5482371;26;19934;-79
2024/04/12 04:49:49;;;;;;;;;;;;;;;27.85;23.25;99667.94;5483964;26;20375;-83
2024/04/12 04:52:15;;;;;;;;;;;;;;;28.32;23.13;99663.31;5506361;26;19947;-82
2024/04/12 04:54:41;;;;;;;;;;;;;;;28.62;22.80;99677.41;5514534;25;19961;-83
2024/04/12 04:57:08;;;;;;;;;;;;;;;28.79;22.78;99669.88;5493730;26;20267;-83
2024/04/12 04:59:35;;;;;;;;;;;;;;;28.75;22.83;99677.63;5502599;25;19958;-83
2024/04/12 05:02:01;;;;;;;;;;;;;;;28.81;22.89;99675.09;5540462;25;20351;-83
2024/04/12 05:04:31;;;;;;;;;;;;;;;29.07;22.61;99677.09;5492591;26;19936;-83
2024/04/12 05:07:00;;;;;;;;;;;;;;;28.97;22.41;99678.88;5518323;26;19928;-83
2024/04/12 05:09:32;;;;;;;;;;;;;;;28.66;22.93;99680.97;5468037;26;20355;-83
2024/04/12 05:11:58;;;;;;;;;;;;;;;28.45;22.78;99677.66;5501893;26;19934;-83
2024/04/12 05:17:06;;;;;;;;;;;;;;;28.60;23.13;99682.69;5493135;26;19932;-83
2024/04/12 05:19:39;;;;;;;;;;;;;;;28.45;23.69;99674.84;5494407;26;19939;-83
2024/04/12 05:22:09;;;;;;;;;;;;;;;28.31;24.51;99680.69;5456138;26;20001;-83
2024/04/12 05:24:35;;;;;;;;;;;;;;;28.40;24.48;99678.91;5479207;26;19928;-83
2024/04/12 05:27:04;;;;;;;;;;;;;;;28.61;24.69;99681.47;5482111;26;19928;-83
2024/04/12 05:29:30;;;;;;;;;;;;;;;28.79;24.67;99684.03;5474951;26;20341;-83
2024/04/12 05:31:57;;;;;;;;;;;;;;;28.80;24.93;99679.94;5504411;26;20397;-83
2024/04/12 05:34:26;;;;;;;;;;;;;;;28.84;25.23;99686.38;5482432;26;19936;-83
2024/04/12 05:36:55;;;;;;;;;;;;;;;28.68;24.97;99686.22;5477492;26;19928;-83
2024/04/12 05:39:22;;;;;;;;;;;;;;;28.71;25.88;99685.34;5488129;26;19964;-83
2024/04/12 05:41:53;;;;;;;;;;;;;;;29.10;25.09;99688.34;5492369;26;20320;-83
2024/04/12 05:44:19;;;;;;;;;;;;;;;29.50;24.76;99680.00;5483194;26;19935;-83
2024/04/12 05:46:45;;;;;;;;;;;;;;;29.92;24.70;99679.97;5489571;26;19934;-83
2024/04/12 05:49:12;;;;;;;;;;;;;;;30.26;24.36;99671.16;5500021;26;19959;-83
2024/04/12 05:51:39;;;;;;;;;;;;;;;30.47;23.77;99679.22;5509465;26;19932;-83
2024/04/12 05:54:10;;;;;;;;;;;;;;;30.80;24.13;99682.09;5489033;26;19936;-83
2024/04/12 05:56:39;;;;;;;;;;;;;;;30.97;24.30;99687.34;5502759;26;19931;-83
2024/04/12 05:59:10;;;;;;;;;;;;;;;31.13;24.57;99684.53;5497489;26;19932;-83
2024/04/12 06:01:43;;;;;;;;;;;;;;;31.28;23.93;99679.28;5482295;26;19928;-83
2024/04/12 06:04:13;;;;;;;;;;;;;;;31.46;23.75;99679.63;5475832;25;19927;-83
2024/04/12 06:06:42;;;;;;;;;;;;;;;31.56;23.49;99670.03;5495022;26;19927;-83
2024/04/12 06:09:20;;;;;;;;;;;;;;;31.55;22.91;99673.31;5471443;26;20265;-83
2024/04/12 06:11:50;;;;;;;;;;;;;;;31.43;23.96;99674.84;5491650;26;19927;-82
2024/04/12 06:14:24;;;;;;;;;;;;;;;31.37;23.32;99670.91;5487085;26;19928;-83
2024/04/12 06:16:51;;;;;;;;;;;;;;;31.40;23.27;99672.88;5458213;26;20372;-83
2024/04/12 06:19:18;;;;;;;;;;;;;;;31.41;24.26;99671.63;5497263;26;20378;-83
2024/04/12 06:21:48;;;;;;;;;;;;;;;31.51;23.64;99675.47;5496804;26;19975;-83
2024/04/12 06:24:25;;;;;;;;;;;;;;;31.70;24.08;99661.09;5485175;26;19995;-83
2024/04/12 06:26:55;;;;;;;;;;;;;;;31.78;22.80;99662.53;5489277;26;19928;-81
2024/04/12 06:29:22;;;;;;;;;;;;;;;31.92;22.71;99661.31;5473119;26;19932;-83
2024/04/12 06:31:53;;;;;;;;;;;;;;;31.26;23.24;99659.84;5501666;26;19935;-80
2024/04/12 06:34:20;;;;;;;;;;;;;;;31.20;23.68;99658.00;5514296;26;19928;-80
2024/04/12 06:36:46;;;;;;;;;;;;;;;31.58;23.57;99653.34;5472158;26;20261;-80
2024/04/12 06:39:13;;;;;;;;;;;;;;;31.80;23.87;99647.84;5490543;26;19932;-80
2024/04/12 06:41:40;;;;;;;;;;;;;;;31.78;23.09;99650.34;5516807;26;20342;-81
2024/04/12 06:44:15;;;;;;;;;;;;;;;31.77;23.70;99641.03;5493111;26;20296;-79
2024/04/12 06:46:47;;;;;;;;;;;;;;;31.86;23.60;99641.16;5489463;26;19940;-80
2024/04/12 06:49:14;;;;;;;;;;;;;;;32.20;23.64;99646.28;5490915;26;19936;-80
2024/04/12 06:54:25;;;;;;;;;;;;;;;32.59;22.79;99642.22;5492730;26;19961;-80
2024/04/12 06:56:51;;;;;;;;;;;;;;;32.57;22.65;99645.53;5467692;26;19928;-80
2024/04/12 06:59:26;;;;;;;;;;;;;;;32.74;22.95;99637.69;5509800;26;19935;-80
2024/04/12 07:01:54;;;;;;;;;;;;;;;32.81;22.84;99636.66;5500178;26;19932;-80
2024/04/12 07:04:20;;;;;;;;;;;;;;;32.77;22.05;99630.28;5532713;25;20324;-80
2024/04/12 07:06:50;;;;;;;;;;;;;;;32.72;21.44;99634.50;5506386;26;19935;-80
2024/04/12 07:09:17;;;;;;;;;;;;;;;32.62;22.26;99641.31;5527911;25;19938;-80
2024/04/12 07:11:43;;;;;;;;;;;;;;;32.71;22.57;99633.69;5525327;26;19932;-80
2024/04/12 07:14:09;;;;;;;;;;;;;;;32.82;22.87;99632.53;5554691;25;19926;-80
2024/04/12 07:16:35;;;;;;;;;;;;;;;33.10;22.34;99634.44;5527152;25;19935;-80
2024/04/12 07:19:08;;;;;;;;;;;;;;;33.18;21.61;99647.19;5528047;25;20317;-80
2024/04/12 07:21:37;;;;;;;;;;;;;;;33.08;21.09;99639.81;5537064;25;19928;-80
2024/04/12 07:24:03;;;;;;;;;;;;;;;33.09;21.37;99632.88;5512558;26;19996;-80
2024/04/12 07:26:29;;;;;;;;;;;;;;;33.02;21.53;99633.13;5525681;26;19939;-81
2024/04/12 07:29:02;;;;;;;;;;;;;;;33.16;23.50;99630.56;5484684;26;19935;-81
2024/04/12 07:31:34;;;;;;;;;;;;;;;33.44;21.05;99623.84;5549834;25;19959;-80
2024/04/12 07:34:01;;;;;;;;;;;;;;;33.71;21.91;99620.47;5538223;25;19995;-80
2024/04/12 07:36:31;;;;;;;;;;;;;;;33.59;22.16;99618.47;5549923;25;19938;-80
2024/04/12 07:39:01;;;;;;;;;;;;;;;33.63;21.32;99624.81;5527324;25;19935;-80
2024/04/12 07:41:28;;;;;;;;;;;;;;;33.57;21.47;99620.97;5530230;25;19935;-80
2024/04/12 07:43:55;;;;;;;;;;;;;;;33.67;21.61;99627.56;5534896;25;19939;-80
2024/04/12 07:46:27;;;;;;;;;;;;;;;33.79;20.79;99627.50;5548945;25;20000;-80
2024/04/12 07:48:57;;;;;;;;;;;;;;;33.91;21.07;99622.97;5526700;26;19934;-80
2024/04/12 07:51:31;;;;;;;;;;;;;;;33.90;21.12;99619.34;5516391;26;20020;-80
2024/04/12 07:54:03;;;;;;;;;;;;;;;33.46;20.75;99619.75;5510178;25;20617;-80
2024/04/12 07:56:37;;;;;;;;;;;;;;;33.41;21.48;99624.78;5564563;25;19938;-80
2024/04/12 07:59:25;;;;;;;;;;;;;;;33.50;21.35;99626.91;5564184;25;19927;-80
2024/04/12 08:01:57;;;;;;;;;;;;;;;33.36;20.87;99625.38;5512366;25;19956;-80
2024/04/12 08:04:23;;;;;;;;;;;;;;;33.13;21.03;99628.63;5503456;26;19927;-80
2024/04/12 08:09:24;;;;;;;;;;;;;;;33.29;19.54;99622.78;5524859;26;20271;-80
2024/04/12 08:11:58;;;;;;;;;;;;;;;33.10;20.75;99623.84;5526501;25;19939;-80
2024/04/12 08:14:26;;;;;;;;;;;;;;;33.02;21.22;99621.72;5551772;25;19999;-80
2024/04/12 08:16:54;;;;;;;;;;;;;;;32.50;21.69;99616.53;5563137;25;20255;-81
2024/04/12 08:19:23;;;;;;;;;;;;;;;32.35;21.81;99610.44;5516687;25;19930;-80
2024/04/12 08:21:49;;;;;;;;;;;;;;;32.28;21.20;99616.38;5516789;26;19935;-81
2024/04/12 08:24:22;;;;;;;;;;;;;;;31.75;22.61;99617.97;5526479;26;20377;-80
2024/04/12 08:26:57;;;;;;;;;;;;;;;32.82;19.82;99607.72;5537964;25;19933;-80
2024/04/12 08:29:23;;;;;;;;;;;;;;;33.29;20.79;99616.28;5548604;25;20279;-80
2024/04/12 08:31:50;;;;;;;;;;;;;;;33.70;19.64;99603.84;5563323;25;19930;-80
2024/04/12 08:34:16;;;;;;;;;;;;;;;33.32;19.16;99603.97;5539312;25;19939;-81
2024/04/12 08:36:49;;;;;;;;;;;;;;;32.43;20.17;99600.47;5494627;26;19967;-81
2024/04/12 08:39:25;;;;;;;;;;;;;;;31.51;22.54;99602.41;5526896;26;19935;-81
2024/04/12 08:41:58;;;;;;;;;;;;;;;31.49;22.02;99596.41;5496497;26;20324;-81
2024/04/12 08:44:24;;;;;;;;;;;;;;;31.09;22.35;99600.72;5538925;25;19936;-81
2024/04/12 08:46:50;;;;;;;;;;;;;;;31.46;21.41;99588.78;5544044;25;19931;-81
2024/04/12 08:49:17;;;;;;;;;;;;;;;31.82;20.52;99595.03;5529660;26;19927;-81
2024/04/12 08:51:46;;;;;;;;;;;;;;;29.72;22.94;99602.72;5514699;26;19935;-81
2024/04/12 08:54:15;;;;;;;;;;;;;;;28.64;24.21;99615.59;5494685;26;19936;-81
2024/04/12 08:56:45;;;;;;;;;;;;;;;29.21;24.00;99604.13;5529925;26;19927;-81
2024/04/12 08:59:17;;;;;;;;;;;;;;;30.21;23.82;99608.53;5529875;26;19933;-81
2024/04/12 09:01:45;;;;;;;;;;;;;;;31.18;21.99;99596.00;5522066;25;19927;-81
2024/04/12 09:04:14;;;;;;;;;;;;;;;31.91;22.26;99600.03;5567303;25;20323;-81
2024/04/12 09:06:41;;;;;;;;;;;;;;;31.60;22.31;99601.78;5567505;25;19927;-80
2024/04/12 09:09:13;;;;;;;;;;;;;;;31.45;22.12;99601.38;5551100;25;19996;-81
2024/04/12 09:11:40;;;;;;;;;;;;;;;29.23;24.05;99603.69;5522694;25;19927;-80
2024/04/12 09:14:19;;;;;;;;;;;;;;;29.92;24.40;99603.50;5498850;26;20052;-80
2024/04/12 09:16:48;;;;;;;;;;;;;;;31.27;21.49;99596.16;5496735;26;19927;-80
2024/04/12 09:19:15;;;;;;;;;;;;;;;30.47;23.46;99599.84;5528981;25;19934;-81
2024/04/12 09:22:02;;;;;;;;;;;;;;;30.22;23.61;99602.44;5528975;26;19956;-80
2024/04/12 09:24:31;;;;;;;;;;;;;;;30.20;23.10;99596.41;5529230;26;19934;-81
2024/04/12 09:27:05;;;;;;;;;;;;;;;30.85;22.57;99588.78;5528067;26;19959;-80
2024/04/12 09:29:33;;;;;;;;;;;;;;;30.78;23.54;99586.91;5549570;25;19938;-81
2024/04/12 09:34:55;;;;;;;;;;;;;;;31.19;21.31;99576.94;5566894;25;19934;-81
2024/04/12 09:42:44;;;;;;;;;;;;;;;31.09;22.02;99564.63;5566332;25;19927;-80
2024/04/12 09:45:16;;;;;;;;;;;;;;;31.54;21.41;99567.47;5500788;26;20283;-81
2024/04/12 10:37:40;;;;;;;;;;;;;;;33.45;18.49;99513.56;5539981;25;19935;-81
2024/04/12 10:40:09;;;;;;;;;;;;;;;31.69;21.05;99514.69;5497193;26;20392;-81
2024/04/12 10:42:35;;;;;;;;;;;;;;;31.46;19.74;99509.28;5531810;25;19933;-82
2024/04/12 10:45:07;;;;;;;;;;;;;;;31.10;21.80;99509.50;5562015;25;19995;-81
2024/04/12 10:47:39;;;;;;;;;;;;;;;31.23;21.68;99503.84;5565063;25;19967;-81
2024/04/12 10:50:06;;;;;;;;;;;;;;;31.76;20.21;99502.31;5524224;25;19927;-82
2024/04/12 10:52:33;;;;;;;;;;;;;;;31.82;22.11;99491.94;5543400;25;19927;-81
2024/04/12 10:55:00;;;;;;;;;;;;;;;31.60;19.15;99505.25;5529410;25;19927;-81
2024/04/12 10:57:29;;;;;;;;;;;;;;;33.12;17.60;99496.09;5534690;25;19927;-81
2024/04/12 11:00:00;;;;;;;;;;;;;;;33.24;18.13;99486.69;5539915;25;19927;-82
2024/04/12 11:02:30;;;;;;;;;;;;;;;32.88;18.35;99483.56;5560619;25;19926;-81
2024/04/12 11:07:42;;;;;;;;;;;;;;;32.64;19.71;99479.53;5529318;25;20370;-82
2024/04/12 11:10:22;;;;;;;;;;;;;;;33.21;18.74;99478.31;5488300;26;19928;-81
2024/04/12 11:12:51;;;;;;;;;;;;;;;34.13;18.41;99478.34;5495318;26;20348;-82
2024/04/12 11:31:55;;;;;;;;;;;;;;;33.37;19.06;99458.16;5547356;25;19934;-80
2024/04/12 11:34:25;;;;;;;;;;;;;;;33.17;18.66;99460.53;5537760;25;19928;-80
2024/04/12 11:36:55;;;;;;;;;;;;;;;34.61;18.30;99451.09;5553794;25;20007;-79
2024/04/12 11:39:27;;;;;;;;;;;;;;;35.51;18.59;99449.47;5550036;25;19934;-79
2024/04/12 11:42:00;;;;;;;;;;;;;;;36.11;17.83;99438.75;5528594;25;20364;-80
2024/04/12 11:44:26;;;;;;;;;;;;;;;35.19;17.40;99442.38;5532085;25;19927;-82
2024/04/12 11:47:02;;;;;;;;;;;;;;;34.30;18.20;99441.81;5474087;26;20263;-80
2024/04/12 11:49:48;;;;;;;;;;;;;;;33.63;18.37;99441.72;5494365;25;19927;-81
2024/04/12 11:52:18;;;;;;;;;;;;;;;34.20;18.64;99446.69;5513669;26;19934;-81
2024/04/12 11:54:51;;;;;;;;;;;;;;;31.55;20.68;99438.44;5543104;25;20243;-81
2024/04/12 11:57:19;;;;;;;;;;;;;;;32.83;19.27;99426.44;5556141;25;20379;-81
2024/04/12 11:59:46;;;;;;;;;;;;;;;33.08;18.87;99426.31;5529045;25;19928;-81
2024/04/12 12:02:15;;;;;;;;;;;;;;;33.50;19.32;99424.69;5526204;25;19934;-81
2024/04/12 12:04:41;;;;;;;;;;;;;;;33.43;19.63;99431.47;5541093;25;19933;-81
2024/04/12 12:07:10;;;;;;;;;;;;;;;34.78;19.03;99417.31;5548165;25;19935;-81
2024/04/12 12:09:37;;;;;;;;;;;;;;;33.98;19.42;99420.34;5563290;25;19927;-81
2024/04/12 12:12:10;;;;;;;;;;;;;;;34.50;18.43;99402.22;5521478;25;20327;-81
2024/04/12 12:14:41;;;;;;;;;;;;;;;33.91;19.23;99410.00;5521610;25;19958;-81
2024/04/12 12:17:08;;;;;;;;;;;;;;;34.28;18.73;99415.84;5501829;26;19928;-81
2024/04/12 12:19:35;;;;;;;;;;;;;;;33.90;19.27;99419.81;5514103;25;19935;-81
2024/04/12 12:22:02;;;;;;;;;;;;;;;34.30;18.68;99416.16;5526851;26;19927;-80
2024/04/12 12:24:37;;;;;;;;;;;;;;;35.13;18.37;99395.72;5529922;25;19937;-81
2024/04/12 12:27:09;;;;;;;;;;;;;;;34.08;18.15;99399.16;5563587;25;20459;-80
2024/04/12 12:29:35;;;;;;;;;;;;;;;32.88;20.14;99398.19;5563913;25;19938;-81
2024/04/12 12:32:02;;;;;;;;;;;;;;;33.69;20.65;99408.50;5560498;25;19940;-81
2024/04/12 12:34:28;;;;;;;;;;;;;;;34.96;19.77;99391.63;5506314;25;19936;-80
2024/04/12 12:36:59;;;;;;;;;;;;;;;35.67;19.56;99386.22;5521658;25;19927;-81
2024/04/12 12:39:30;;;;;;;;;;;;;;;35.85;18.64;99386.91;5524180;25;19928;-81
2024/04/12 12:42:05;;;;;;;;;;;;;;;36.84;17.22;99373.22;5525853;26;19939;-81
2024/04/12 12:44:31;;;;;;;;;;;;;;;37.32;17.00;99365.25;5518047;26;20000;-81
2024/04/12 12:47:02;;;;;;;;;;;;;;;37.42;18.05;99369.63;5542217;25;19927;-80
2024/04/12 12:49:39;;;;;;;;;;;;;;;37.83;17.28;99361.97;5553247;25;19927;-80
2024/04/12 12:52:06;;;;;;;;;;;;;;;36.97;19.19;99365.16;5489439;26;20295;-80
2024/04/12 12:54:32;;;;;;;;;;;;;;;36.21;18.94;99373.72;5522918;26;19951;-81
2024/04/12 12:56:58;;;;;;;;;;;;;;;35.59;17.64;99362.13;5526294;26;19927;-81
2024/04/12 12:59:28;;;;;;;;;;;;;;;35.54;18.12;99369.31;5533494;25;20019;-80
2024/04/12 13:01:55;;;;;;;;;;;;;;;36.67;17.83;99360.63;5563159;25;19931;-80
2024/04/12 13:04:21;;;;;;;;;;;;;;;37.33;16.40;99355.38;5554324;25;19927;-81
2024/04/12 13:06:47;;;;;;;;;;;;;;;36.91;17.67;99355.69;5509326;25;19928;-81
2024/04/12 13:09:17;;;;;;;;;;;;;;;36.56;19.30;99351.84;5507406;26;19955;-81
2024/04/12 13:11:43;;;;;;;;;;;;;;;36.89;17.88;99343.09;5538001;25;20282;-81
2024/04/12 13:14:10;;;;;;;;;;;;;;;37.41;16.94;99345.13;5516939;25;20282;-81
2024/04/12 13:16:41;;;;;;;;;;;;;;;36.59;17.16;99334.50;5561429;25;19997;-81
2024/04/12 13:19:15;;;;;;;;;;;;;;;36.07;17.54;99332.34;5563250;25;20369;-81
2024/04/12 13:21:42;;;;;;;;;;;;;;;35.78;17.73;99332.19;5535897;25;20272;-81
2024/04/12 13:24:08;;;;;;;;;;;;;;;36.54;17.44;99335.19;5520206;25;20445;-81
2024/04/12 13:26:39;;;;;;;;;;;;;;;36.62;17.07;99327.78;5547860;25;19927;-81
2024/04/12 13:29:05;;;;;;;;;;;;;;;36.66;17.63;99333.31;5537658;25;19938;-80
2024/04/12 13:31:33;;;;;;;;;;;;;;;36.54;17.37;99322.94;5533048;25;20583;-81
2024/04/12 13:34:02;;;;;;;;;;;;;;;36.53;17.45;99329.91;5557462;25;19935;-80
2024/04/12 13:36:31;;;;;;;;;;;;;;;36.04;18.06;99333.31;5566491;25;19931;-80
2024/04/12 13:38:57;;;;;;;;;;;;;;;35.92;17.69;99320.00;5566595;25;19934;-80
2024/04/12 13:41:23;;;;;;;;;;;;;;;35.98;17.05;99327.47;5540407;25;19928;-81
2024/04/12 13:43:49;;;;;;;;;;;;;;;36.71;17.52;99316.22;5535470;25;20328;-81
2024/04/12 13:51:51;;;;;;;;;;;;;;;34.99;19.05;99319.28;5529268;26;19954;-80
2024/04/12 13:54:22;;;;;;;;;;;;;;;33.87;19.49;99321.00;5513335;26;20383;-80
2024/04/12 13:56:49;;;;;;;;;;;;;;;33.51;20.28;99323.75;5543394;25;19939;-81
2024/04/12 13:59:15;;;;;;;;;;;;;;;34.56;19.96;99317.63;5514968;25;19932;-80
2024/04/12 14:01:41;;;;;;;;;;;;;;;35.28;18.58;99316.69;5540181;25;20298;-80
2024/04/12 14:04:09;;;;;;;;;;;;;;;34.36;21.98;99320.13;5553239;25;20300;-81
2024/04/12 14:06:36;;;;;;;;;;;;;;;34.04;21.50;99318.69;5558690;25;19931;-81
2024/04/12 14:09:12;;;;;;;;;;;;;;;34.96;18.78;99303.91;5560559;25;19990;-80
2024/04/12 14:11:39;;;;;;;;;;;;;;;35.59;18.89;99311.50;5560761;25;20365;-81
2024/04/12 14:14:05;;;;;;;;;;;;;;;35.84;17.75;99316.75;5558332;25;20025;-81
2024/04/12 14:16:32;;;;;;;;;;;;;;;35.13;19.20;99310.84;5514861;25;22464;-83
2024/04/12 14:18:59;;;;;;;;;;;;;;;35.64;18.44;99299.38;5517104;25;19926;-79
2024/04/12 14:21:26;;;;;;;;;;;;;;;36.27;17.93;99291.69;5531879;25;19937;-81
2024/04/12 14:23:52;;;;;;;;;;;;;;;36.22;19.23;99295.22;5530670;25;20102;-81
2024/04/12 14:26:18;;;;;;;;;;;;;;;36.54;17.67;99289.38;5520280;25;19936;-80
2024/04/12 14:28:44;;;;;;;;;;;;;;;36.48;17.72;99282.75;5525231;25;19927;-80